sensor_id;sensor_type;location;lat;lon;timestamp;temperature;humidity
75994;DHT22;64680;53.800;9.988;2023-03-01T00:01:09;-2.80;50.50
75994;DHT22;64680;53.800;9.988;2023-03-01T00:03:35;-2.80;50.70
75994;DHT22;64680;53.800;9.988;2023-03-01T00:06:02;-2.90;50.90
75994;DHT22;64680;53.800;9.988;2023-03-01T00:08:28;-2.90;51.30
75994;DHT22;64680;53.800;9.988;2023-03-01T00:11:05;-2.90;52.10
75994;DHT22;64680;53.800;9.988;2023-03-01T00:13:31;-2.90;52.60
75994;DHT22;64680;53.800;9.988;2023-03-01T00:15:57;-2.90;52.90
75994;DHT22;64680;53.800;9.988;2023-03-01T00:18:23;-3.00;52.90
75994;DHT22;64680;53.800;9.988;2023-03-01T00:20:52;-2.90;53.10
75994;DHT22;64680;53.800;9.988;2023-03-01T00:23:19;-3.00;53.10
75994;DHT22;64680;53.800;9.988;2023-03-01T00:25:45;-3.00;53.00
75994;DHT22;64680;53.800;9.988;2023-03-01T00:28:10;-3.00;53.10
75994;DHT22;64680;53.800;9.988;2023-03-01T00:30:36;-3.00;52.90
75994;DHT22;64680;53.800;9.988;2023-03-01T00:33:01;-3.00;52.80
75994;DHT22;64680;53.800;9.988;2023-03-01T00:35:27;-3.10;53.00
75994;DHT22;64680;53.800;9.988;2023-03-01T00:37:53;-3.00;52.90
75994;DHT22;64680;53.800;9.988;2023-03-01T00:40:27;-3.00;52.90
75994;DHT22;64680;53.800;9.988;2023-03-01T00:42:53;-3.10;52.80
75994;DHT22;64680;53.800;9.988;2023-03-01T00:45:19;-3.10;52.80
75994;DHT22;64680;53.800;9.988;2023-03-01T00:47:45;-3.10;52.90
75994;DHT22;64680;53.800;9.988;2023-03-01T00:50:11;-3.10;53.00
75994;DHT22;64680;53.800;9.988;2023-03-01T00:52:37;-3.10;53.60
75994;DHT22;64680;53.800;9.988;2023-03-01T00:55:04;-3.10;53.60
75994;DHT22;64680;53.800;9.988;2023-03-01T00:57:30;-3.10;54.00
75994;DHT22;64680;53.800;9.988;2023-03-01T00:59:56;-3.10;54.00
75994;DHT22;64680;53.800;9.988;2023-03-01T01:02:22;-3.10;54.10
75994;DHT22;64680;53.800;9.988;2023-03-01T01:04:47;-3.10;53.90
75994;DHT22;64680;53.800;9.988;2023-03-01T01:07:14;-3.10;53.60
75994;DHT22;64680;53.800;9.988;2023-03-01T01:09:40;-3.10;53.40
75994;DHT22;64680;53.800;9.988;2023-03-01T01:12:06;-3.10;53.70
75994;DHT22;64680;53.800;9.988;2023-03-01T01:14:31;-3.10;53.70
75994;DHT22;64680;53.800;9.988;2023-03-01T01:16:57;-3.20;53.40
75994;DHT22;64680;53.800;9.988;2023-03-01T01:19:24;-3.20;53.30
75994;DHT22;64680;53.800;9.988;2023-03-01T01:21:50;-3.20;53.10
75994;DHT22;64680;53.800;9.988;2023-03-01T01:24:16;-3.20;53.00
75994;DHT22;64680;53.800;9.988;2023-03-01T01:26:42;-3.30;52.90
75994;DHT22;64680;53.800;9.988;2023-03-01T01:29:08;-3.30;53.00
75994;DHT22;64680;53.800;9.988;2023-03-01T01:31:36;-3.30;52.80
75994;DHT22;64680;53.800;9.988;2023-03-01T01:34:04;-3.40;53.10
75994;DHT22;64680;53.800;9.988;2023-03-01T01:36:31;-3.30;53.80
75994;DHT22;64680;53.800;9.988;2023-03-01T01:38:57;-3.30;54.20
75994;DHT22;64680;53.800;9.988;2023-03-01T01:41:25;-3.40;54.50
75994;DHT22;64680;53.800;9.988;2023-03-01T01:46:38;-3.40;55.10
75994;DHT22;64680;53.800;9.988;2023-03-01T01:51:49;-3.40;55.70
75994;DHT22;64680;53.800;9.988;2023-03-01T01:54:30;-3.40;55.90
75994;DHT22;64680;53.800;9.988;2023-03-01T01:56:58;-3.40;56.10
75994;DHT22;64680;53.800;9.988;2023-03-01T01:59:24;-3.40;56.20
75994;DHT22;64680;53.800;9.988;2023-03-01T02:01:54;-3.40;56.60
75994;DHT22;64680;53.800;9.988;2023-03-01T02:04:20;-3.40;56.70
75994;DHT22;64680;53.800;9.988;2023-03-01T02:06:53;-3.40;56.50
75994;DHT22;64680;53.800;9.988;2023-03-01T02:09:20;-3.40;56.80
75994;DHT22;64680;53.800;9.988;2023-03-01T02:11:47;-3.40;57.60
75994;DHT22;64680;53.800;9.988;2023-03-01T02:14:14;-3.40;57.50
75994;DHT22;64680;53.800;9.988;2023-03-01T02:16:41;-3.40;57.50
75994;DHT22;64680;53.800;9.988;2023-03-01T02:19:09;-3.40;57.60
75994;DHT22;64680;53.800;9.988;2023-03-01T02:21:51;-3.40;57.90
75994;DHT22;64680;53.800;9.988;2023-03-01T02:27:15;-3.50;58.40
75994;DHT22;64680;53.800;9.988;2023-03-01T02:29:42;-3.50;58.60
75994;DHT22;64680;53.800;9.988;2023-03-01T02:32:11;-3.50;58.70
75994;DHT22;64680;53.800;9.988;2023-03-01T02:34:38;-3.50;59.00
75994;DHT22;64680;53.800;9.988;2023-03-01T02:37:11;-3.50;60.30
75994;DHT22;64680;53.800;9.988;2023-03-01T02:39:44;-3.50;60.40
75994;DHT22;64680;53.800;9.988;2023-03-01T02:42:14;-3.50;59.70
75994;DHT22;64680;53.800;9.988;2023-03-01T02:44:40;-3.60;59.70
75994;DHT22;64680;53.800;9.988;2023-03-01T02:47:06;-3.60;59.70
75994;DHT22;64680;53.800;9.988;2023-03-01T02:49:34;-3.60;59.90
75994;DHT22;64680;53.800;9.988;2023-03-01T02:55:08;-3.60;60.50
75994;DHT22;64680;53.800;9.988;2023-03-01T02:57:36;-3.50;60.80
75994;DHT22;64680;53.800;9.988;2023-03-01T03:00:11;-3.50;61.10
75994;DHT22;64680;53.800;9.988;2023-03-01T03:02:48;-3.50;61.30
75994;DHT22;64680;53.800;9.988;2023-03-01T03:05:18;-3.50;61.50
75994;DHT22;64680;53.800;9.988;2023-03-01T03:07:46;-3.50;61.60
75994;DHT22;64680;53.800;9.988;2023-03-01T03:10:18;-3.60;61.50
75994;DHT22;64680;53.800;9.988;2023-03-01T03:12:48;-3.50;61.70
75994;DHT22;64680;53.800;9.988;2023-03-01T03:15:14;-3.50;61.90
75994;DHT22;64680;53.800;9.988;2023-03-01T03:17:41;-3.50;62.40
75994;DHT22;64680;53.800;9.988;2023-03-01T03:20:08;-3.50;62.60
75994;DHT22;64680;53.800;9.988;2023-03-01T03:22:38;-3.50;62.70
75994;DHT22;64680;53.800;9.988;2023-03-01T03:25:09;-3.50;62.70
75994;DHT22;64680;53.800;9.988;2023-03-01T03:27:36;-3.50;62.30
75994;DHT22;64680;53.800;9.988;2023-03-01T03:30:04;-3.50;61.90
75994;DHT22;64680;53.800;9.988;2023-03-01T03:32:37;-3.50;61.40
75994;DHT22;64680;53.800;9.988;2023-03-01T03:35:04;-3.50;60.90
75994;DHT22;64680;53.800;9.988;2023-03-01T03:37:39;-3.50;60.50
75994;DHT22;64680;53.800;9.988;2023-03-01T03:40:23;-3.60;60.30
75994;DHT22;64680;53.800;9.988;2023-03-01T03:42:49;-3.60;60.40
75994;DHT22;64680;53.800;9.988;2023-03-01T03:45:16;-3.60;60.30
75994;DHT22;64680;53.800;9.988;2023-03-01T03:47:42;-3.60;60.60
75994;DHT22;64680;53.800;9.988;2023-03-01T03:50:10;-3.70;60.00
75994;DHT22;64680;53.800;9.988;2023-03-01T03:52:35;-3.70;59.80
75994;DHT22;64680;53.800;9.988;2023-03-01T03:55:01;-3.70;59.70
75994;DHT22;64680;53.800;9.988;2023-03-01T03:57:27;-3.70;59.70
75994;DHT22;64680;53.800;9.988;2023-03-01T03:59:52;-3.70;59.70
75994;DHT22;64680;53.800;9.988;2023-03-01T04:02:18;-3.70;59.80
75994;DHT22;64680;53.800;9.988;2023-03-01T04:04:48;-3.80;59.80
75994;DHT22;64680;53.800;9.988;2023-03-01T04:07:15;-3.70;60.20
75994;DHT22;64680;53.800;9.988;2023-03-01T04:09:42;-3.80;60.10
75994;DHT22;64680;53.800;9.988;2023-03-01T04:12:09;-3.80;59.80
75994;DHT22;64680;53.800;9.988;2023-03-01T04:14:35;-3.80;59.60
75994;DHT22;64680;53.800;9.988;2023-03-01T04:17:00;-3.80;59.60
75994;DHT22;64680;53.800;9.988;2023-03-01T04:19:26;-3.80;59.30
75994;DHT22;64680;53.800;9.988;2023-03-01T04:21:53;-3.90;59.20
75994;DHT22;64680;53.800;9.988;2023-03-01T04:24:19;-3.90;59.20
75994;DHT22;64680;53.800;9.988;2023-03-01T04:26:44;-3.90;59.50
75994;DHT22;64680;53.800;9.988;2023-03-01T04:29:10;-3.90;60.30
75994;DHT22;64680;53.800;9.988;2023-03-01T04:31:35;-3.80;60.70
75994;DHT22;64680;53.800;9.988;2023-03-01T04:34:01;-3.90;61.00
75994;DHT22;64680;53.800;9.988;2023-03-01T04:36:28;-3.80;61.60
75994;DHT22;64680;53.800;9.988;2023-03-01T04:38:54;-3.80;62.30
75994;DHT22;64680;53.800;9.988;2023-03-01T04:41:22;-3.70;62.90
75994;DHT22;64680;53.800;9.988;2023-03-01T04:43:48;-3.60;63.50
75994;DHT22;64680;53.800;9.988;2023-03-01T04:46:17;-3.50;64.60
75994;DHT22;64680;53.800;9.988;2023-03-01T04:48:45;-3.30;65.10
75994;DHT22;64680;53.800;9.988;2023-03-01T04:51:12;-3.20;65.40
75994;DHT22;64680;53.800;9.988;2023-03-01T04:53:39;-3.10;65.80
75994;DHT22;64680;53.800;9.988;2023-03-01T04:56:05;-3.10;65.80
75994;DHT22;64680;53.800;9.988;2023-03-01T04:58:32;-2.90;65.80
75994;DHT22;64680;53.800;9.988;2023-03-01T05:00:57;-2.90;65.60
75994;DHT22;64680;53.800;9.988;2023-03-01T05:03:23;-2.90;65.20
75994;DHT22;64680;53.800;9.988;2023-03-01T05:05:51;-2.90;64.60
75994;DHT22;64680;53.800;9.988;2023-03-01T05:08:17;-2.80;64.40
75994;DHT22;64680;53.800;9.988;2023-03-01T05:10:45;-2.80;64.20
75994;DHT22;64680;53.800;9.988;2023-03-01T05:13:12;-2.80;64.10
75994;DHT22;64680;53.800;9.988;2023-03-01T05:15:56;-2.80;63.90
75994;DHT22;64680;53.800;9.988;2023-03-01T05:18:23;-2.80;63.70
75994;DHT22;64680;53.800;9.988;2023-03-01T05:20:55;-2.70;63.70
75994;DHT22;64680;53.800;9.988;2023-03-01T05:23:26;-2.70;63.50
75994;DHT22;64680;53.800;9.988;2023-03-01T05:25:51;-2.70;62.70
75994;DHT22;64680;53.800;9.988;2023-03-01T05:28:18;-2.70;62.50
75994;DHT22;64680;53.800;9.988;2023-03-01T05:30:44;-2.60;63.00
75994;DHT22;64680;53.800;9.988;2023-03-01T05:33:10;-2.60;62.70
75994;DHT22;64680;53.800;9.988;2023-03-01T05:35:40;-2.50;62.60
75994;DHT22;64680;53.800;9.988;2023-03-01T05:38:07;-2.50;62.50
75994;DHT22;64680;53.800;9.988;2023-03-01T05:40:33;-2.40;62.30
75994;DHT22;64680;53.800;9.988;2023-03-01T05:42:59;-2.40;61.90
75994;DHT22;64680;53.800;9.988;2023-03-01T05:45:26;-2.40;61.60
75994;DHT22;64680;53.800;9.988;2023-03-01T05:47:52;-2.30;61.70
75994;DHT22;64680;53.800;9.988;2023-03-01T05:50:29;-2.30;61.50
75994;DHT22;64680;53.800;9.988;2023-03-01T05:53:00;-2.30;61.40
75994;DHT22;64680;53.800;9.988;2023-03-01T05:55:27;-2.30;61.10
75994;DHT22;64680;53.800;9.988;2023-03-01T05:57:53;-2.30;61.00
75994;DHT22;64680;53.800;9.988;2023-03-01T06:00:20;-2.30;61.00
75994;DHT22;64680;53.800;9.988;2023-03-01T06:02:48;-2.30;60.50
75994;DHT22;64680;53.800;9.988;2023-03-01T06:05:14;-2.40;60.30
75994;DHT22;64680;53.800;9.988;2023-03-01T06:07:41;-2.40;60.90
75994;DHT22;64680;53.800;9.988;2023-03-01T06:10:08;-2.40;61.40
75994;DHT22;64680;53.800;9.988;2023-03-01T06:12:35;-2.40;61.20
75994;DHT22;64680;53.800;9.988;2023-03-01T06:15:01;-2.50;61.80
75994;DHT22;64680;53.800;9.988;2023-03-01T06:17:29;-2.50;62.40
75994;DHT22;64680;53.800;9.988;2023-03-01T06:19:55;-2.50;62.50
75994;DHT22;64680;53.800;9.988;2023-03-01T06:22:21;-2.40;62.90
75994;DHT22;64680;53.800;9.988;2023-03-01T06:24:46;-2.40;63.10
75994;DHT22;64680;53.800;9.988;2023-03-01T06:27:12;-2.40;63.50
75994;DHT22;64680;53.800;9.988;2023-03-01T06:29:37;-2.30;64.00
75994;DHT22;64680;53.800;9.988;2023-03-01T06:32:03;-2.20;64.30
75994;DHT22;64680;53.800;9.988;2023-03-01T06:34:29;-2.10;64.90
75994;DHT22;64680;53.800;9.988;2023-03-01T06:36:55;-2.00;64.80
75994;DHT22;64680;53.800;9.988;2023-03-01T06:39:20;-1.90;65.70
75994;DHT22;64680;53.800;9.988;2023-03-01T06:41:46;-1.80;65.70
75994;DHT22;64680;53.800;9.988;2023-03-01T06:44:12;-1.70;66.00
75994;DHT22;64680;53.800;9.988;2023-03-01T06:46:39;-1.60;66.10
75994;DHT22;64680;53.800;9.988;2023-03-01T06:49:05;-1.60;65.50
75994;DHT22;64680;53.800;9.988;2023-03-01T06:51:37;-1.60;65.60
75994;DHT22;64680;53.800;9.988;2023-03-01T06:54:04;-1.60;66.00
75994;DHT22;64680;53.800;9.988;2023-03-01T06:56:30;-1.60;66.20
75994;DHT22;64680;53.800;9.988;2023-03-01T06:58:56;-1.50;66.60
75994;DHT22;64680;53.800;9.988;2023-03-01T07:01:22;-1.50;66.80
75994;DHT22;64680;53.800;9.988;2023-03-01T07:03:48;-1.50;67.10
75994;DHT22;64680;53.800;9.988;2023-03-01T07:06:13;-1.40;67.30
75994;DHT22;64680;53.800;9.988;2023-03-01T07:08:39;-1.30;67.80
75994;DHT22;64680;53.800;9.988;2023-03-01T07:11:04;-1.20;67.70
75994;DHT22;64680;53.800;9.988;2023-03-01T07:13:31;-1.20;67.80
75994;DHT22;64680;53.800;9.988;2023-03-01T07:15:56;-1.10;67.80
75994;DHT22;64680;53.800;9.988;2023-03-01T07:18:22;-1.10;67.30
75994;DHT22;64680;53.800;9.988;2023-03-01T07:20:47;-1.00;67.20
75994;DHT22;64680;53.800;9.988;2023-03-01T07:23:13;-0.90;67.10
75994;DHT22;64680;53.800;9.988;2023-03-01T07:25:39;-0.90;66.80
75994;DHT22;64680;53.800;9.988;2023-03-01T07:28:04;-0.80;66.90
75994;DHT22;64680;53.800;9.988;2023-03-01T07:30:30;-0.70;66.70
75994;DHT22;64680;53.800;9.988;2023-03-01T07:32:57;-0.70;64.70
75994;DHT22;64680;53.800;9.988;2023-03-01T07:35:25;-0.70;65.10
75994;DHT22;64680;53.800;9.988;2023-03-01T07:37:52;-0.70;62.60
75994;DHT22;64680;53.800;9.988;2023-03-01T07:40:18;-0.70;61.70
75994;DHT22;64680;53.800;9.988;2023-03-01T07:42:44;-0.70;61.60
75994;DHT22;64680;53.800;9.988;2023-03-01T07:45:10;-0.70;62.10
75994;DHT22;64680;53.800;9.988;2023-03-01T07:47:36;-0.70;62.40
75994;DHT22;64680;53.800;9.988;2023-03-01T07:50:03;-0.60;61.40
75994;DHT22;64680;53.800;9.988;2023-03-01T07:52:29;-0.50;62.50
75994;DHT22;64680;53.800;9.988;2023-03-01T07:54:56;-0.30;60.70
75994;DHT22;64680;53.800;9.988;2023-03-01T07:57:21;-0.30;59.20
75994;DHT22;64680;53.800;9.988;2023-03-01T07:59:47;-0.30;56.50
75994;DHT22;64680;53.800;9.988;2023-03-01T08:02:13;-0.30;58.00
75994;DHT22;64680;53.800;9.988;2023-03-01T08:04:40;-0.10;58.90
75994;DHT22;64680;53.800;9.988;2023-03-01T08:07:06;0.20;54.20
75994;DHT22;64680;53.800;9.988;2023-03-01T08:09:35;0.20;53.20
75994;DHT22;64680;53.800;9.988;2023-03-01T08:12:01;0.40;51.60
75994;DHT22;64680;53.800;9.988;2023-03-01T08:14:26;0.50;50.20
75994;DHT22;64680;53.800;9.988;2023-03-01T08:16:52;0.50;49.50
75994;DHT22;64680;53.800;9.988;2023-03-01T08:19:18;0.50;47.90
75994;DHT22;64680;53.800;9.988;2023-03-01T08:21:44;0.50;49.80
75994;DHT22;64680;53.800;9.988;2023-03-01T08:24:09;0.60;49.10
75994;DHT22;64680;53.800;9.988;2023-03-01T08:26:36;0.50;51.40
75994;DHT22;64680;53.800;9.988;2023-03-01T08:29:02;0.40;52.60
75994;DHT22;64680;53.800;9.988;2023-03-01T08:31:34;0.40;54.10
75994;DHT22;64680;53.800;9.988;2023-03-01T08:34:05;0.40;54.10
75994;DHT22;64680;53.800;9.988;2023-03-01T08:36:32;0.50;51.80
75994;DHT22;64680;53.800;9.988;2023-03-01T08:38:58;0.60;50.60
75994;DHT22;64680;53.800;9.988;2023-03-01T08:41:24;0.70;49.70
75994;DHT22;64680;53.800;9.988;2023-03-01T08:43:51;0.80;49.10
75994;DHT22;64680;53.800;9.988;2023-03-01T08:46:18;0.80;50.00
75994;DHT22;64680;53.800;9.988;2023-03-01T08:48:43;0.90;51.20
75994;DHT22;64680;53.800;9.988;2023-03-01T08:51:15;0.90;51.70
75994;DHT22;64680;53.800;9.988;2023-03-01T08:53:41;0.90;52.30
75994;DHT22;64680;53.800;9.988;2023-03-01T08:56:08;0.90;53.50
75994;DHT22;64680;53.800;9.988;2023-03-01T08:58:34;1.10;51.50
75994;DHT22;64680;53.800;9.988;2023-03-01T09:01:00;1.30;51.40
75994;DHT22;64680;53.800;9.988;2023-03-01T09:03:27;1.40;51.70
75994;DHT22;64680;53.800;9.988;2023-03-01T09:05:53;1.70;47.20
75994;DHT22;64680;53.800;9.988;2023-03-01T09:08:19;1.70;45.30
75994;DHT22;64680;53.800;9.988;2023-03-01T09:10:45;1.80;47.90
75994;DHT22;64680;53.800;9.988;2023-03-01T09:13:11;1.70;47.60
75994;DHT22;64680;53.800;9.988;2023-03-01T09:15:37;1.80;49.20
75994;DHT22;64680;53.800;9.988;2023-03-01T09:18:03;2.00;46.30
75994;DHT22;64680;53.800;9.988;2023-03-01T09:20:30;2.00;43.70
75994;DHT22;64680;53.800;9.988;2023-03-01T09:22:56;2.10;45.10
75994;DHT22;64680;53.800;9.988;2023-03-01T09:25:22;2.10;44.80
75994;DHT22;64680;53.800;9.988;2023-03-01T09:27:51;2.20;42.60
75994;DHT22;64680;53.800;9.988;2023-03-01T09:30:17;2.30;45.40
75994;DHT22;64680;53.800;9.988;2023-03-01T09:32:42;2.40;43.00
75994;DHT22;64680;53.800;9.988;2023-03-01T09:35:10;2.30;45.80
75994;DHT22;64680;53.800;9.988;2023-03-01T09:37:36;2.50;44.30
75994;DHT22;64680;53.800;9.988;2023-03-01T09:40:05;2.60;42.60
75994;DHT22;64680;53.800;9.988;2023-03-01T09:42:33;2.60;41.70
75994;DHT22;64680;53.800;9.988;2023-03-01T09:45:11;2.70;42.30
75994;DHT22;64680;53.800;9.988;2023-03-01T09:47:40;2.70;43.60
75994;DHT22;64680;53.800;9.988;2023-03-01T09:50:12;2.60;41.10
75994;DHT22;64680;53.800;9.988;2023-03-01T10:00:54;2.80;43.40
75994;DHT22;64680;53.800;9.988;2023-03-01T10:03:36;2.80;43.70
75994;DHT22;64680;53.800;9.988;2023-03-01T10:06:14;2.60;43.50
75994;DHT22;64680;53.800;9.988;2023-03-01T10:09:33;2.70;48.00
75994;DHT22;64680;53.800;9.988;2023-03-01T10:11:38;2.80;46.70
75994;DHT22;64680;53.800;9.988;2023-03-01T10:14:12;2.90;48.10
75994;DHT22;64680;53.800;9.988;2023-03-01T10:16:55;3.10;46.20
75994;DHT22;64680;53.800;9.988;2023-03-01T10:19:45;3.20;45.30
75994;DHT22;64680;53.800;9.988;2023-03-01T10:22:21;3.40;42.50
75994;DHT22;64680;53.800;9.988;2023-03-01T10:24:49;3.50;41.20
75994;DHT22;64680;53.800;9.988;2023-03-01T10:30:12;3.30;40.50
75994;DHT22;64680;53.800;9.988;2023-03-01T10:32:42;3.30;44.00
75994;DHT22;64680;53.800;9.988;2023-03-01T10:35:23;3.30;48.00
75994;DHT22;64680;53.800;9.988;2023-03-01T10:38:04;3.30;45.40
75994;DHT22;64680;53.800;9.988;2023-03-01T10:40:32;3.50;38.90
75994;DHT22;64680;53.800;9.988;2023-03-01T10:42:59;2.80;46.40
75994;DHT22;64680;53.800;9.988;2023-03-01T10:48:24;3.10;49.60
75994;DHT22;64680;53.800;9.988;2023-03-01T10:53:41;3.70;41.80
75994;DHT22;64680;53.800;9.988;2023-03-01T10:56:14;3.90;38.10
75994;DHT22;64680;53.800;9.988;2023-03-01T10:59:02;4.10;35.40
75994;DHT22;64680;53.800;9.988;2023-03-01T11:01:31;4.40;34.20
75994;DHT22;64680;53.800;9.988;2023-03-01T11:04:18;4.40;32.90
75994;DHT22;64680;53.800;9.988;2023-03-01T11:06:43;4.60;28.40
75994;DHT22;64680;53.800;9.988;2023-03-01T11:09:24;4.50;29.20
75994;DHT22;64680;53.800;9.988;2023-03-01T11:11:54;4.60;30.00
75994;DHT22;64680;53.800;9.988;2023-03-01T11:14:37;4.50;26.40
75994;DHT22;64680;53.800;9.988;2023-03-01T11:17:19;4.50;30.30
75994;DHT22;64680;53.800;9.988;2023-03-01T11:22:31;4.90;27.90
75994;DHT22;64680;53.800;9.988;2023-03-01T11:24:58;4.90;20.50
75994;DHT22;64680;53.800;9.988;2023-03-01T11:27:33;4.50;29.50
75994;DHT22;64680;53.800;9.988;2023-03-01T11:30:04;4.60;30.60
75994;DHT22;64680;53.800;9.988;2023-03-01T11:32:38;4.80;26.00
75994;DHT22;64680;53.800;9.988;2023-03-01T11:40:26;5.40;16.70
75994;DHT22;64680;53.800;9.988;2023-03-01T11:43:23;5.00;20.00
75994;DHT22;64680;53.800;9.988;2023-03-01T11:48:44;4.70;26.60
75994;DHT22;64680;53.800;9.988;2023-03-01T11:54:34;5.20;19.40
75994;DHT22;64680;53.800;9.988;2023-03-01T12:00:05;6.20;3.30
75994;DHT22;64680;53.800;9.988;2023-03-01T12:25:20;7.30;1.00
75994;DHT22;64680;53.800;9.988;2023-03-01T12:30:37;7.30;1.00
75994;DHT22;64680;53.800;9.988;2023-03-01T12:33:22;7.70;1.00
75994;DHT22;64680;53.800;9.988;2023-03-01T12:36:03;7.30;1.00
75994;DHT22;64680;53.800;9.988;2023-03-01T12:41:40;7.30;1.00
75994;DHT22;64680;53.800;9.988;2023-03-01T12:44:15;7.60;1.00
75994;DHT22;64680;53.800;9.988;2023-03-01T12:49:34;7.30;1.00
75994;DHT22;64680;53.800;9.988;2023-03-01T12:54:39;7.50;1.00
75994;DHT22;64680;53.800;9.988;2023-03-01T12:57:26;7.10;1.00
75994;DHT22;64680;53.800;9.988;2023-03-01T13:02:48;6.90;1.00
75994;DHT22;64680;53.800;9.988;2023-03-01T13:08:03;6.80;1.00
75994;DHT22;64680;53.800;9.988;2023-03-01T13:13:35;7.30;1.00
75994;DHT22;64680;53.800;9.988;2023-03-01T13:19:16;7.20;1.00
75994;DHT22;64680;53.800;9.988;2023-03-01T13:21:43;7.10;1.00
75994;DHT22;64680;53.800;9.988;2023-03-01T13:29:48;7.10;1.00
75994;DHT22;64680;53.800;9.988;2023-03-01T13:32:24;7.10;1.00
75994;DHT22;64680;53.800;9.988;2023-03-01T13:34:53;6.80;1.00
75994;DHT22;64680;53.800;9.988;2023-03-01T13:37:33;6.60;1.00
75994;DHT22;64680;53.800;9.988;2023-03-01T13:40:56;6.20;1.00
75994;DHT22;64680;53.800;9.988;2023-03-01T13:42:52;6.00;1.00
75994;DHT22;64680;53.800;9.988;2023-03-01T13:45:40;5.80;1.00
75994;DHT22;64680;53.800;9.988;2023-03-01T13:48:23;5.60;1.00
75994;DHT22;64680;53.800;9.988;2023-03-01T13:50:54;5.50;2.60
75994;DHT22;64680;53.800;9.988;2023-03-01T13:53:26;5.50;3.10
75994;DHT22;64680;53.800;9.988;2023-03-01T13:59:01;5.40;1.00
75994;DHT22;64680;53.800;9.988;2023-03-01T14:01:28;5.40;1.00
75994;DHT22;64680;53.800;9.988;2023-03-01T14:03:54;5.40;1.00
75994;DHT22;64680;53.800;9.988;2023-03-01T14:06:24;5.40;1.10
75994;DHT22;64680;53.800;9.988;2023-03-01T14:09:01;5.40;1.00
75994;DHT22;64680;53.800;9.988;2023-03-01T14:14:29;5.20;1.20
75994;DHT22;64680;53.800;9.988;2023-03-01T14:17:02;5.30;1.00
75994;DHT22;64680;53.800;9.988;2023-03-01T14:19:30;5.40;1.00
75994;DHT22;64680;53.800;9.988;2023-03-01T14:24:58;5.30;1.00
75994;DHT22;64680;53.800;9.988;2023-03-01T14:27:37;5.30;1.00
75994;DHT22;64680;53.800;9.988;2023-03-01T14:30:26;5.20;1.00
75994;DHT22;64680;53.800;9.988;2023-03-01T14:32:57;5.20;1.00
75994;DHT22;64680;53.800;9.988;2023-03-01T14:35:29;5.20;1.00
75994;DHT22;64680;53.800;9.988;2023-03-01T14:37:55;5.10;1.00
75994;DHT22;64680;53.800;9.988;2023-03-01T14:42:51;5.10;1.00
75994;DHT22;64680;53.800;9.988;2023-03-01T14:45:18;5.00;1.00
75994;DHT22;64680;53.800;9.988;2023-03-01T14:47:45;5.00;1.00
75994;DHT22;64680;53.800;9.988;2023-03-01T14:50:31;5.00;1.00
75994;DHT22;64680;53.800;9.988;2023-03-01T14:53:00;5.00;1.00
75994;DHT22;64680;53.800;9.988;2023-03-01T14:55:31;4.90;1.00
75994;DHT22;64680;53.800;9.988;2023-03-01T14:57:58;4.90;1.00
75994;DHT22;64680;53.800;9.988;2023-03-01T15:00:27;4.90;2.40
75994;DHT22;64680;53.800;9.988;2023-03-01T15:03:00;4.90;2.80
75994;DHT22;64680;53.800;9.988;2023-03-01T15:05:31;4.90;2.10
75994;DHT22;64680;53.800;9.988;2023-03-01T15:08:01;5.00;2.70
75994;DHT22;64680;53.800;9.988;2023-03-01T15:10:31;5.00;3.60
75994;DHT22;64680;53.800;9.988;2023-03-01T15:13:11;5.00;3.90
75994;DHT22;64680;53.800;9.988;2023-03-01T15:15:42;5.00;4.00
75994;DHT22;64680;53.800;9.988;2023-03-01T15:18:28;5.00;5.00
75994;DHT22;64680;53.800;9.988;2023-03-01T15:20:54;4.90;6.50
75994;DHT22;64680;53.800;9.988;2023-03-01T15:25:49;4.90;6.10
75994;DHT22;64680;53.800;9.988;2023-03-01T15:28:28;4.90;7.40
75994;DHT22;64680;53.800;9.988;2023-03-01T15:30:57;4.80;7.00
75994;DHT22;64680;53.800;9.988;2023-03-01T15:33:35;4.80;8.30
75994;DHT22;64680;53.800;9.988;2023-03-01T15:38:53;4.80;9.10
75994;DHT22;64680;53.800;9.988;2023-03-01T15:41:29;4.80;9.00
75994;DHT22;64680;53.800;9.988;2023-03-01T15:44:00;4.80;10.20
75994;DHT22;64680;53.800;9.988;2023-03-01T15:48:59;4.80;11.80
75994;DHT22;64680;53.800;9.988;2023-03-01T15:51:34;4.80;12.40
75994;DHT22;64680;53.800;9.988;2023-03-01T15:54:17;4.80;12.40
75994;DHT22;64680;53.800;9.988;2023-03-01T15:56:44;4.80;12.00
75994;DHT22;64680;53.800;9.988;2023-03-01T15:59:11;4.70;12.50
75994;DHT22;64680;53.800;9.988;2023-03-01T16:01:41;4.60;13.10
75994;DHT22;64680;53.800;9.988;2023-03-01T16:04:07;4.50;14.10
75994;DHT22;64680;53.800;9.988;2023-03-01T16:06:33;4.40;15.40
75994;DHT22;64680;53.800;9.988;2023-03-01T16:08:59;4.30;16.40
75994;DHT22;64680;53.800;9.988;2023-03-01T16:11:24;4.30;17.40
75994;DHT22;64680;53.800;9.988;2023-03-01T16:13:50;4.20;18.40
75994;DHT22;64680;53.800;9.988;2023-03-01T16:16:16;4.10;18.50
75994;DHT22;64680;53.800;9.988;2023-03-01T16:18:43;4.10;18.90
75994;DHT22;64680;53.800;9.988;2023-03-01T16:21:23;4.00;19.30
75994;DHT22;64680;53.800;9.988;2023-03-01T16:23:49;3.80;20.80
75994;DHT22;64680;53.800;9.988;2023-03-01T16:26:15;3.80;21.50
75994;DHT22;64680;53.800;9.988;2023-03-01T16:28:42;3.70;23.10
75994;DHT22;64680;53.800;9.988;2023-03-01T16:31:09;3.70;23.80
75994;DHT22;64680;53.800;9.988;2023-03-01T16:33:35;3.60;24.50
75994;DHT22;64680;53.800;9.988;2023-03-01T16:36:07;3.60;24.10
75994;DHT22;64680;53.800;9.988;2023-03-01T16:38:33;3.50;27.40
75994;DHT22;64680;53.800;9.988;2023-03-01T16:41:00;3.40;29.00
75994;DHT22;64680;53.800;9.988;2023-03-01T16:43:25;3.30;29.20
75994;DHT22;64680;53.800;9.988;2023-03-01T16:45:51;3.20;30.70
75994;DHT22;64680;53.800;9.988;2023-03-01T16:48:17;3.10;32.50
75994;DHT22;64680;53.800;9.988;2023-03-01T16:50:42;3.00;34.30
75994;DHT22;64680;53.800;9.988;2023-03-01T16:53:08;3.00;36.20
75994;DHT22;64680;53.800;9.988;2023-03-01T16:55:34;2.90;36.00
75994;DHT22;64680;53.800;9.988;2023-03-01T16:58:01;2.90;37.40
75994;DHT22;64680;53.800;9.988;2023-03-01T17:00:27;2.70;39.90
75994;DHT22;64680;53.800;9.988;2023-03-01T17:02:53;2.60;41.90
75994;DHT22;64680;53.800;9.988;2023-03-01T17:05:19;2.50;44.80
75994;DHT22;64680;53.800;9.988;2023-03-01T17:07:46;2.50;46.20
75994;DHT22;64680;53.800;9.988;2023-03-01T17:10:12;2.30;45.10
75994;DHT22;64680;53.800;9.988;2023-03-01T17:12:37;2.10;48.60
75994;DHT22;64680;53.800;9.988;2023-03-01T17:15:04;2.00;51.00
75994;DHT22;64680;53.800;9.988;2023-03-01T17:17:31;1.80;54.90
75994;DHT22;64680;53.800;9.988;2023-03-01T17:19:57;1.60;56.70
75994;DHT22;64680;53.800;9.988;2023-03-01T17:22:22;1.40;59.20
75994;DHT22;64680;53.800;9.988;2023-03-01T17:24:48;1.20;59.70
75994;DHT22;64680;53.800;9.988;2023-03-01T17:27:14;1.00;62.50
75994;DHT22;64680;53.800;9.988;2023-03-01T17:29:40;1.00;64.70
75994;DHT22;64680;53.800;9.988;2023-03-01T17:32:07;0.90;66.60
75994;DHT22;64680;53.800;9.988;2023-03-01T17:34:33;0.90;67.80
75994;DHT22;64680;53.800;9.988;2023-03-01T17:36:59;0.80;69.00
75994;DHT22;64680;53.800;9.988;2023-03-01T17:39:25;0.70;69.60
75994;DHT22;64680;53.800;9.988;2023-03-01T17:41:55;0.70;70.70
75994;DHT22;64680;53.800;9.988;2023-03-01T17:44:21;0.70;71.70
75994;DHT22;64680;53.800;9.988;2023-03-01T17:46:46;0.60;71.80